Time;durP1;ratioP1;P1;durP2;ratioP2;P2;SDS_P1;SDS_P2;PMS_P1;PMS_P2;Temp;Humidity;BMP_temperature;BMP_pressure;BME280_temperature;BME280_humidity;BME280_pressure;Samples;Min_cycle;Max_cycle;Signal;HPM_P1;HPM_P2
2023/02/12 00:00:35;;;;;;;9.95;6.60;;;;;;;6.83;100.00;102643.72;4970429;28;20030;-92
2023/02/12 00:03:00;;;;;;;13.15;7.63;;;;;;;6.83;100.00;102638.59;4956999;28;20028;-92
2023/02/12 00:05:26;;;;;;;8.45;6.55;;;;;;;6.89;100.00;102647.97;4957078;28;20038;-92
2023/02/12 00:07:52;;;;;;;10.45;7.03;;;;;;;6.88;100.00;102646.28;4956948;28;20027;-91
2023/02/12 00:10:18;;;;;;;12.45;6.93;;;;;;;6.86;100.00;102636.00;4971173;28;20024;-91
2023/02/12 00:12:43;;;;;;;10.35;6.60;;;;;;;6.97;100.00;102650.47;4956390;28;20032;-92
2023/02/12 00:15:09;;;;;;;10.88;6.60;;;;;;;6.91;100.00;102653.09;4965176;28;20039;-92
2023/02/12 00:17:34;;;;;;;10.02;6.55;;;;;;;6.92;100.00;102644.53;4956331;28;20038;-91
2023/02/12 00:20:00;;;;;;;12.20;6.63;;;;;;;6.92;100.00;102632.53;4955683;28;20482;-91
2023/02/12 00:22:26;;;;;;;12.93;6.43;;;;;;;6.90;100.00;102638.53;4955682;28;20027;-91
2023/02/12 00:24:52;;;;;;;10.05;5.28;;;;;;;7.02;100.00;102654.72;4971033;28;20034;-92
2023/02/12 00:27:17;;;;;;;8.38;5.32;;;;;;;6.99;100.00;102628.22;4975816;28;20027;-92
2023/02/12 00:29:43;;;;;;;8.80;4.60;;;;;;;7.06;100.00;102643.56;4968552;28;20482;-91
2023/02/12 00:32:08;;;;;;;8.75;4.70;;;;;;;6.94;100.00;102635.94;4955204;29;20043;-91
2023/02/12 00:34:34;;;;;;;5.82;4.45;;;;;;;6.91;100.00;102640.25;4971153;28;20045;-91
2023/02/12 00:36:59;;;;;;;7.35;4.60;;;;;;;6.93;100.00;102646.25;4974202;28;20023;-91
2023/02/12 00:39:25;;;;;;;8.55;4.00;;;;;;;6.89;100.00;102642.81;4962898;28;20114;-91
2023/02/12 00:41:51;;;;;;;7.68;4.15;;;;;;;6.81;100.00;102635.19;4955091;29;20031;-92
2023/02/12 00:44:16;;;;;;;13.07;4.20;;;;;;;6.74;100.00;102627.53;4956928;28;20035;-91
2023/02/12 00:46:41;;;;;;;7.35;3.80;;;;;;;6.85;100.00;102626.59;4955191;28;20497;-92
2023/02/12 00:49:07;;;;;;;6.82;3.78;;;;;;;6.77;100.00;102625.78;4956324;28;20498;-91
2023/02/12 00:51:32;;;;;;;5.53;3.53;;;;;;;6.77;100.00;102623.22;4956569;28;20074;-92
2023/02/12 00:53:58;;;;;;;6.78;3.72;;;;;;;6.70;100.00;102620.72;4972008;28;20393;-91
2023/02/12 00:56:23;;;;;;;10.63;4.68;;;;;;;6.78;100.00;102637.78;4955906;28;20082;-92
2023/02/12 00:58:49;;;;;;;5.55;3.55;;;;;;;6.84;100.00;102640.28;4957469;28;20031;-92
2023/02/12 01:01:15;;;;;;;8.38;3.58;;;;;;;6.70;100.00;102634.38;4970750;28;20033;-91
2023/02/12 01:03:41;;;;;;;8.52;5.07;;;;;;;6.57;100.00;102613.09;4962316;28;20042;-91
2023/02/12 01:06:07;;;;;;;7.25;5.40;;;;;;;6.74;100.00;102643.78;4974002;28;20077;-91
2023/02/12 01:08:33;;;;;;;9.48;6.35;;;;;;;6.72;100.00;102635.22;4956062;28;20035;-91
2023/02/12 01:11:02;;;;;;;14.00;7.30;;;;;;;6.74;100.00;102641.22;4974616;28;20393;-92
2023/02/12 01:13:29;;;;;;;8.73;5.93;;;;;;;6.64;100.00;102632.72;4967972;28;20474;-91
2023/02/12 01:16:13;;;;;;;9.88;5.60;;;;;;;6.67;100.00;102636.13;4955867;28;20023;-90
2023/02/12 01:18:39;;;;;;;6.80;5.80;;;;;;;6.62;100.00;102629.31;4960437;28;20031;-92
2023/02/12 01:21:12;;;;;;;10.88;6.30;;;;;;;6.58;100.00;102629.31;4954341;28;20491;-92
2023/02/12 01:23:39;;;;;;;9.13;5.88;;;;;;;6.52;100.00;102626.81;4954323;28;20057;-93
2023/02/12 01:26:06;;;;;;;11.48;6.15;;;;;;;6.45;100.00;102615.72;4955532;28;20031;-91
2023/02/12 01:28:32;;;;;;;7.70;5.75;;;;;;;6.49;100.00;102621.69;4961312;28;20054;-93
2023/02/12 01:30:57;;;;;;;8.65;5.30;;;;;;;6.54;100.00;102627.66;4973347;28;20058;-91
2023/02/12 01:33:23;;;;;;;9.93;5.78;;;;;;;6.43;100.00;102597.75;4965882;28;20038;-92
2023/02/12 01:35:48;;;;;;;7.85;4.13;;;;;;;6.52;100.00;102606.28;4955519;28;20031;-92
2023/02/12 01:38:14;;;;;;;6.38;3.58;;;;;;;6.61;100.00;102619.06;4959159;28;20029;-93
2023/02/12 01:40:39;;;;;;;4.57;3.47;;;;;;;6.53;100.00;102607.97;4972928;28;20031;-92
2023/02/12 01:43:10;;;;;;;6.82;3.72;;;;;;;6.34;100.00;102591.81;4968508;28;20430;-93
2023/02/12 01:45:35;;;;;;;6.82;3.70;;;;;;;6.52;100.00;102619.09;4954803;28;20031;-93
2023/02/12 01:48:01;;;;;;;6.35;3.60;;;;;;;6.31;100.00;102581.59;4955011;28;20024;-92
2023/02/12 01:50:26;;;;;;;6.35;4.70;;;;;;;6.31;100.00;102596.97;4954621;28;20035;-93
2023/02/12 01:52:56;;;;;;;5.07;3.42;;;;;;;6.31;100.00;102592.69;4953979;28;20067;-92
2023/02/12 01:55:22;;;;;;;6.43;3.60;;;;;;;6.53;100.00;102603.69;4973567;28;20018;-92
2023/02/12 01:57:48;;;;;;;6.93;3.65;;;;;;;6.36;100.00;102596.09;4971131;28;20029;-93
2023/02/12 02:00:18;;;;;;;5.68;3.60;;;;;;;6.42;100.00;102603.75;4970982;28;20031;-93
2023/02/12 02:02:46;;;;;;;5.13;3.42;;;;;;;6.39;100.00;102606.34;4973192;28;20106;-92
2023/02/12 02:05:17;;;;;;;5.25;3.58;;;;;;;6.53;100.00;102618.22;4972535;28;20034;-92
2023/02/12 02:07:44;;;;;;;6.90;3.95;;;;;;;6.54;100.00;102609.69;4967738;28;20046;-93
2023/02/12 02:10:10;;;;;;;5.97;3.85;;;;;;;6.53;100.00;102602.84;4971933;28;20500;-93
2023/02/12 02:15:20;;;;;;;6.45;4.32;;;;;;;6.67;100.00;102634.41;4954461;29;20497;-92
2023/02/12 02:17:54;;;;;;;6.95;4.43;;;;;;;6.70;100.00;102626.69;4953796;28;20024;-92
2023/02/12 02:20:45;;;;;;;6.20;4.22;;;;;;;6.76;100.00;102630.94;4972251;28;20462;-92
2023/02/12 02:23:31;;;;;;;8.10;4.68;;;;;;;6.69;100.00;102609.59;4969912;28;20501;-92
2023/02/12 02:26:18;;;;;;;7.72;4.85;;;;;;;6.88;100.00;102617.16;4972573;28;20035;-92
2023/02/12 02:28:56;;;;;;;7.65;4.70;;;;;;;6.80;100.00;102620.66;4971959;28;20117;-92
2023/02/12 02:31:29;;;;;;;8.23;4.82;;;;;;;6.79;100.00;102620.66;4965163;28;20035;-92
2023/02/12 02:34:22;;;;;;;9.60;5.40;;;;;;;6.83;100.00;102623.19;4960795;28;20034;-92
2023/02/12 02:37:18;;;;;;;9.20;5.22;;;;;;;6.77;100.00;102615.53;4973621;28;20026;-92
2023/02/12 02:39:49;;;;;;;6.38;4.93;;;;;;;6.80;100.00;102622.34;4964721;28;20066;-92
2023/02/12 02:42:32;;;;;;;7.95;5.18;;;;;;;6.73;100.00;102615.53;4952913;29;20085;-91
2023/02/12 02:45:12;;;;;;;8.88;5.35;;;;;;;6.75;100.00;102621.53;4970269;28;20553;-92
2023/02/12 02:48:12;;;;;;;9.02;5.15;;;;;;;6.71;100.00;102613.00;4973406;28;20031;-92
2023/02/12 02:50:42;;;;;;;9.98;5.32;;;;;;;6.71;100.00;102613.00;4972693;28;20082;-92
2023/02/12 02:53:30;;;;;;;10.38;5.60;;;;;;;6.72;100.00;102617.28;4963125;28;20023;-93
2023/02/12 02:55:59;;;;;;;9.40;5.50;;;;;;;6.59;100.00;102602.81;4952749;28;20032;-93
2023/02/12 02:58:51;;;;;;;8.55;6.22;;;;;;;6.78;100.00;102614.69;4955983;28;20429;-92
2023/02/12 03:01:17;;;;;;;8.85;5.38;;;;;;;6.79;100.00;102616.38;4970700;28;20033;-92
2023/02/12 03:04:06;;;;;;;9.57;5.50;;;;;;;6.66;100.00;102614.75;4962024;28;20102;-92
2023/02/12 03:06:47;;;;;;;7.85;5.03;;;;;;;6.67;100.00;102629.28;4952800;29;20038;-92
2023/02/12 03:09:35;;;;;;;7.38;5.53;;;;;;;6.61;100.00;102611.38;4959432;28;20090;-92
2023/02/12 03:12:09;;;;;;;7.40;5.60;;;;;;;6.62;100.00;102607.94;4949017;29;20038;-92
2023/02/12 03:14:40;;;;;;;7.47;5.32;;;;;;;6.69;100.00;102614.72;4954933;28;20024;-92
2023/02/12 03:17:15;;;;;;;6.78;5.65;;;;;;;6.55;100.00;102596.84;4953870;28;20074;-92
2023/02/12 03:19:46;;;;;;;7.05;5.10;;;;;;;6.58;100.00;102606.22;4955965;28;20048;-92
2023/02/12 03:22:17;;;;;;;9.93;5.60;;;;;;;6.55;100.00;102612.22;4955865;28;20031;-92
2023/02/12 03:24:55;;;;;;;11.15;5.75;;;;;;;6.50;100.00;102592.59;4972223;28;20109;-93
2023/02/12 03:27:30;;;;;;;7.22;5.07;;;;;;;6.52;100.00;102603.72;4976631;28;20053;-93
2023/02/12 03:29:57;;;;;;;8.70;5.30;;;;;;;6.50;100.00;102608.00;4959074;28;20038;-91
2023/02/12 03:32:44;;;;;;;8.88;5.50;;;;;;;6.46;100.00;102604.59;4957763;28;20508;-92
2023/02/12 03:35:50;;;;;;;8.50;5.90;;;;;;;6.37;100.00;102597.81;4957295;28;20078;-92
2023/02/12 03:38:48;;;;;;;11.73;5.75;;;;;;;6.38;100.00;102602.06;4956423;28;20070;-92
2023/02/12 03:41:30;;;;;;;9.75;5.72;;;;;;;6.21;100.00;102585.91;4956439;29;20046;-92
2023/02/12 03:44:22;;;;;;;7.03;5.18;;;;;;;6.17;100.00;102579.97;4958090;28;20171;-92
2023/02/12 03:47:01;;;;;;;7.25;6.45;;;;;;;6.30;100.00;102596.13;4956555;28;20038;-91
2023/02/12 03:49:45;;;;;;;9.70;5.90;;;;;;;6.27;100.00;102590.16;4965092;28;20370;-92
2023/02/12 03:52:11;;;;;;;11.13;6.43;;;;;;;6.18;100.00;102589.34;4974813;28;20023;-92
2023/02/12 03:54:37;;;;;;;9.55;5.88;;;;;;;6.14;100.00;102592.78;4960387;28;20031;-92
2023/02/12 03:57:14;;;;;;;8.45;5.57;;;;;;;6.08;100.00;102584.28;4971628;28;20039;-92
2023/02/12 03:59:40;;;;;;;6.32;5.65;;;;;;;6.10;100.00;102597.94;4970111;28;20030;-93
2023/02/12 04:02:06;;;;;;;11.02;7.13;;;;;;;6.14;100.00;102604.75;4969262;28;20028;-92
2023/02/12 04:04:32;;;;;;;10.98;5.97;;;;;;;6.14;100.00;102604.75;4957362;28;20050;-93
2023/02/12 04:06:58;;;;;;;9.02;5.78;;;;;;;6.09;100.00;102597.06;4955328;29;20042;-91
2023/02/12 04:09:25;;;;;;;10.77;5.50;;;;;;;6.06;100.00;102589.41;4965764;28;20469;-92
2023/02/12 04:11:57;;;;;;;10.10;5.65;;;;;;;6.09;100.00;102596.22;4974724;28;20031;-92
2023/02/12 04:14:32;;;;;;;8.70;6.55;;;;;;;6.03;100.00;102586.00;4973896;28;20031;-92
2023/02/12 04:17:15;;;;;;;7.82;5.88;;;;;;;6.09;100.00;102588.53;4969513;28;20024;-92
2023/02/12 04:20:11;;;;;;;6.43;5.55;;;;;;;6.09;100.00;102586.81;4957319;28;20089;-92
2023/02/12 04:23:05;;;;;;;7.40;5.88;;;;;;;6.09;100.00;102586.81;4954956;29;20027;-92
2023/02/12 04:25:40;;;;;;;10.48;6.13;;;;;;;5.95;100.00;102576.63;4956020;28;20042;-92
2023/02/12 04:28:12;;;;;;;10.65;7.15;;;;;;;5.94;100.00;102586.88;4956268;28;20031;-93
2023/02/12 04:30:46;;;;;;;8.48;6.47;;;;;;;5.97;100.00;102586.88;4973733;28;20031;-91
2023/02/12 04:33:18;;;;;;;12.25;6.47;;;;;;;5.91;100.00;102577.47;4957019;28;20545;-92
2023/02/12 04:36:09;;;;;;;;;;;;;;;6.03;100.00;102593.69;4987367;28;20023;-93
2023/02/12 04:38:40;;;;;;;11.20;6.87;;;;;;;6.01;100.00;102588.56;4958568;28;20372;-91
2023/02/12 04:41:07;;;;;;;7.57;6.18;;;;;;;6.06;100.00;102599.66;4956009;28;20054;-92
2023/02/12 04:43:35;;;;;;;8.77;6.57;;;;;;;6.01;100.00;102598.81;4963157;28;20118;-92
2023/02/12 04:46:01;;;;;;;9.25;6.45;;;;;;;5.99;100.00;102601.38;4953893;28;20085;-92
2023/02/12 04:48:27;;;;;;;8.70;6.30;;;;;;;5.90;100.00;102586.03;4970535;28;20027;-92
2023/02/12 04:50:53;;;;;;;13.57;6.82;;;;;;;5.85;100.00;102603.09;4954384;28;20035;-92
2023/02/12 04:53:18;;;;;;;11.32;7.15;;;;;;;5.89;100.00;102594.56;4984775;28;20118;-92
2023/02/12 04:55:44;;;;;;;9.68;6.63;;;;;;;5.97;100.00;102597.13;4954032;28;20031;-92
2023/02/12 04:58:10;;;;;;;13.30;7.75;;;;;;;5.93;100.00;102586.00;4959664;28;20381;-92
2023/02/12 05:00:36;;;;;;;11.05;7.32;;;;;;;5.94;100.00;102590.28;4955105;28;20255;-93
2023/02/12 05:03:01;;;;;;;13.85;7.18;;;;;;;5.96;100.00;102595.44;4960107;28;20485;-92
2023/02/12 05:05:27;;;;;;;10.07;6.65;;;;;;;5.92;100.00;102597.09;4955447;28;20023;-92
2023/02/12 05:07:52;;;;;;;12.43;7.78;;;;;;;5.92;100.00;102604.78;4961276;28;20026;-93
2023/02/12 05:10:18;;;;;;;10.10;6.93;;;;;;;5.87;100.00;102588.56;4975080;28;20030;-92
2023/02/12 05:12:44;;;;;;;9.98;7.55;;;;;;;5.90;100.00;102601.41;4972842;28;20133;-92
2023/02/12 05:15:09;;;;;;;11.75;8.10;;;;;;;5.83;100.00;102589.47;4973359;28;20082;-92
2023/02/12 05:17:35;;;;;;;10.20;7.13;;;;;;;5.77;100.00;102579.22;4954195;28;20026;-92
2023/02/12 05:20:00;;;;;;;10.50;7.55;;;;;;;5.86;100.00;102592.00;4955078;28;20054;-93
2023/02/12 05:22:26;;;;;;;11.02;7.35;;;;;;;5.87;100.00;102601.38;4956222;28;20027;-92
2023/02/12 05:24:51;;;;;;;11.50;7.18;;;;;;;5.75;100.00;102580.94;4955122;28;20840;-92
2023/02/12 05:27:17;;;;;;;8.90;7.15;;;;;;;5.83;100.00;102591.16;4955537;28;20034;-92
2023/02/12 05:29:42;;;;;;;10.05;7.93;;;;;;;5.75;100.00;102575.81;4954856;28;20481;-92
2023/02/12 05:32:08;;;;;;;10.57;8.00;;;;;;;5.80;100.00;102584.31;4966754;28;20051;-92
2023/02/12 05:34:34;;;;;;;11.98;8.35;;;;;;;5.74;100.00;102587.75;4974086;28;20084;-92
2023/02/12 05:36:59;;;;;;;12.95;8.65;;;;;;;5.69;100.00;102586.94;4972654;28;20027;-92
2023/02/12 05:39:25;;;;;;;11.05;8.13;;;;;;;5.79;100.00;102587.75;4974072;28;20035;-92
2023/02/12 05:41:50;;;;;;;12.38;8.57;;;;;;;5.73;100.00;102583.50;4965769;28;20086;-93
2023/02/12 05:44:16;;;;;;;10.65;7.97;;;;;;;5.81;100.00;102591.16;4973627;28;20031;-93
2023/02/12 05:46:41;;;;;;;11.88;8.70;;;;;;;5.79;100.00;102582.63;4973808;28;20034;-92
2023/02/12 05:49:08;;;;;;;13.80;8.98;;;;;;;5.90;100.00;102590.28;4973699;28;20523;-92
2023/02/12 05:51:34;;;;;;;11.73;8.93;;;;;;;5.74;100.00;102579.22;4973373;28;20026;-91
2023/02/12 05:54:03;;;;;;;12.73;8.88;;;;;;;5.77;100.00;102584.34;4973643;28;20519;-92
2023/02/12 05:56:31;;;;;;;15.05;9.63;;;;;;;5.77;100.00;102576.66;4960249;28;20059;-92
2023/02/12 05:59:01;;;;;;;16.35;9.35;;;;;;;5.83;100.00;102599.72;4953277;29;20042;-92
2023/02/12 06:01:38;;;;;;;15.55;9.55;;;;;;;5.80;100.00;102594.56;4959281;28;20489;-92
2023/02/12 06:04:06;;;;;;;14.98;8.93;;;;;;;5.89;100.00;102591.16;4973672;28;20031;-92
2023/02/12 06:06:33;;;;;;;16.98;9.40;;;;;;;5.88;100.00;102590.28;4972045;28;20019;-92
2023/02/12 06:08:59;;;;;;;11.63;8.55;;;;;;;5.81;100.00;102588.59;4972440;28;20485;-92
2023/02/12 06:11:24;;;;;;;12.82;9.23;;;;;;;5.79;100.00;102585.19;4966734;28;20063;-92
2023/02/12 06:13:50;;;;;;;13.40;9.32;;;;;;;5.79;100.00;102572.38;4954341;28;20465;-92
2023/02/12 06:16:21;;;;;;;14.30;9.02;;;;;;;5.84;100.00;102578.34;4958054;28;20545;-92
2023/02/12 06:18:47;;;;;;;14.18;9.63;;;;;;;5.85;100.00;102589.44;4952935;29;20031;-92
2023/02/12 06:21:14;;;;;;;12.82;9.40;;;;;;;5.88;100.00;102585.16;4957213;28;20041;-92
2023/02/12 06:23:39;;;;;;;13.85;8.90;;;;;;;5.91;100.00;102564.66;4971970;28;20031;-92
2023/02/12 06:26:05;;;;;;;13.93;9.82;;;;;;;5.83;100.00;102560.41;4957918;28;20039;-92
2023/02/12 06:28:30;;;;;;;16.08;9.20;;;;;;;6.00;100.00;102556.97;4952693;28;20027;-92
2023/02/12 06:30:56;;;;;;;16.00;9.43;;;;;;;5.98;100.00;102558.69;4953997;28;20513;-92
2023/02/12 06:33:21;;;;;;;14.52;9.38;;;;;;;5.87;100.00;102555.25;4953756;28;20031;-92
2023/02/12 06:35:47;;;;;;;12.13;9.15;;;;;;;5.92;100.00;102561.22;4953742;28;20110;-92
2023/02/12 06:38:13;;;;;;;14.88;9.90;;;;;;;5.92;100.00;102558.66;4954897;28;20034;-93
2023/02/12 06:40:38;;;;;;;15.60;8.90;;;;;;;5.86;100.00;102553.56;4955683;28;20062;-92
2023/02/12 06:43:04;;;;;;;17.10;10.35;;;;;;;5.95;100.00;102548.44;4971107;28;20034;-92
2023/02/12 06:45:29;;;;;;;14.65;10.18;;;;;;;5.88;100.00;102556.13;4971826;28;20254;-93
2023/02/12 06:47:55;;;;;;;16.52;9.98;;;;;;;5.94;100.00;102566.38;4956284;28;20122;-93
2023/02/12 06:50:20;;;;;;;16.17;10.40;;;;;;;5.92;100.00;102562.94;4953598;28;20027;-92
2023/02/12 06:52:46;;;;;;;14.13;10.20;;;;;;;5.88;100.00;102566.38;4967787;28;20034;-92
2023/02/12 06:55:11;;;;;;;17.35;10.27;;;;;;;5.90;100.00;102565.53;4971541;28;20512;-92
2023/02/12 06:57:37;;;;;;;16.20;9.95;;;;;;;5.77;100.00;102551.88;4972441;28;20555;-92
2023/02/12 07:00:03;;;;;;;13.57;9.65;;;;;;;5.93;100.00;102560.38;4976700;28;20030;-92
2023/02/12 07:02:28;;;;;;;12.80;8.55;;;;;;;5.95;100.00;102558.69;4990146;28;20058;-92
2023/02/12 07:04:54;;;;;;;16.02;8.93;;;;;;;5.86;100.00;102558.69;4975746;28;20046;-91
2023/02/12 07:07:19;;;;;;;15.73;9.35;;;;;;;5.78;100.00;102548.47;4973658;28;20062;-93
2023/02/12 07:09:45;;;;;;;20.63;10.15;;;;;;;5.86;100.00;102562.97;4968592;28;20023;-92
2023/02/12 07:12:10;;;;;;;13.65;9.57;;;;;;;5.79;100.00;102562.13;4957308;28;20031;-92
2023/02/12 07:14:36;;;;;;;12.93;9.05;;;;;;;5.77;100.00;102563.84;4957498;28;20359;-93
2023/02/12 07:17:02;;;;;;;14.98;9.77;;;;;;;5.77;100.00;102546.75;4957224;28;20320;-92
2023/02/12 07:19:29;;;;;;;12.00;9.00;;;;;;;5.86;100.00;102571.50;4955868;28;20035;-92
2023/02/12 07:21:55;;;;;;;14.35;9.88;;;;;;;5.90;100.00;102575.78;4958308;28;20027;-92
2023/02/12 07:24:20;;;;;;;17.40;9.23;;;;;;;5.82;100.00;102580.06;4956330;28;20359;-92
2023/02/12 07:26:46;;;;;;;14.13;9.57;;;;;;;5.78;100.00;102570.69;4974079;28;20094;-92
2023/02/12 07:29:12;;;;;;;15.38;9.45;;;;;;;5.72;100.00;102568.13;4979225;28;20023;-92
2023/02/12 07:31:38;;;;;;;13.55;9.48;;;;;;;5.81;100.00;102591.16;4978781;28;20026;-91
2023/02/12 07:34:03;;;;;;;12.88;8.93;;;;;;;5.84;100.00;102578.34;4966957;28;20555;-92
2023/02/12 07:36:31;;;;;;;13.35;9.85;;;;;;;5.89;100.00;102592.00;4973851;28;20038;-92
2023/02/12 07:38:58;;;;;;;12.10;8.77;;;;;;;5.89;100.00;102589.44;4971901;28;20477;-91
2023/02/12 07:41:27;;;;;;;15.80;9.57;;;;;;;5.88;100.00;102592.88;4978322;28;20031;-92
2023/02/12 07:43:59;;;;;;;16.60;9.27;;;;;;;5.89;100.00;102591.16;4971200;28;20038;-92
2023/02/12 07:46:33;;;;;;;15.68;9.35;;;;;;;5.78;100.00;102580.94;4974314;28;20035;-92
2023/02/12 07:49:03;;;;;;;13.43;9.88;;;;;;;5.74;100.00;102568.97;4991131;28;20560;-92
2023/02/12 07:51:29;;;;;;;14.45;8.65;;;;;;;5.86;100.00;102586.88;4977960;28;20046;-92
2023/02/12 07:53:54;;;;;;;16.15;9.55;;;;;;;5.81;100.00;102578.34;4976778;28;20417;-92
2023/02/12 07:56:23;;;;;;;14.38;9.18;;;;;;;5.96;100.00;102598.84;4993021;28;20034;-92
2023/02/12 07:58:50;;;;;;;13.20;9.55;;;;;;;5.91;100.00;102586.88;4997646;28;20054;-93
2023/02/12 08:01:18;;;;;;;16.08;10.32;;;;;;;6.00;100.00;102613.34;4980456;28;20061;-92
2023/02/12 08:03:45;;;;;;;12.77;8.73;;;;;;;6.03;100.00;102603.94;4983156;28;20028;-92
2023/02/12 08:06:22;;;;;;;13.68;9.45;;;;;;;6.09;100.00;102612.44;4970473;28;20035;-92
2023/02/12 08:08:50;;;;;;;12.70;8.85;;;;;;;6.17;100.00;102602.19;4973064;28;20047;-92
2023/02/12 08:11:17;;;;;;;11.82;8.68;;;;;;;6.21;100.00;102617.53;4974977;28;20029;-92
2023/02/12 08:13:43;;;;;;;14.18;7.80;;;;;;;6.17;100.00;102602.19;4971551;28;20034;-92
2023/02/12 08:16:15;;;;;;;16.05;9.00;;;;;;;6.19;100.00;102597.88;4973308;28;20023;-92
2023/02/12 08:18:41;;;;;;;;;;;;;;;6.33;100.00;102606.38;4972199;28;20069;-92
2023/02/12 08:21:12;;;;;;;13.45;8.85;;;;;;;6.36;100.00;102611.47;4960912;28;19918;-92
2023/02/12 08:23:38;;;;;;;13.70;8.85;;;;;;;6.33;100.00;102601.25;4963398;28;20038;-92
2023/02/12 08:26:11;;;;;;;10.13;7.90;;;;;;;6.50;100.00;102608.84;4964128;28;20035;-92
2023/02/12 08:28:39;;;;;;;10.30;7.88;;;;;;;6.57;100.00;102605.38;4955212;28;20031;-92
2023/02/12 08:31:18;;;;;;;16.10;8.50;;;;;;;6.53;99.60;102613.94;4954820;28;20042;-92
2023/02/12 08:33:45;;;;;;;9.75;8.07;;;;;;;6.59;98.74;102603.66;4960334;28;20034;-91
2023/02/12 08:36:14;;;;;;;13.90;7.75;;;;;;;6.67;98.35;102616.44;4970811;28;20031;-91
2023/02/12 08:38:41;;;;;;;9.27;7.90;;;;;;;6.72;96.82;102603.59;4962329;28;20023;-91
2023/02/12 08:41:13;;;;;;;9.90;7.07;;;;;;;6.82;95.89;102628.31;4987223;28;20468;-92
2023/02/12 08:43:40;;;;;;;11.45;7.18;;;;;;;6.64;96.89;102614.75;4972824;28;20038;-91
2023/02/12 08:46:09;;;;;;;11.82;7.15;;;;;;;6.83;96.34;102635.19;4961528;28;20039;-91
2023/02/12 08:48:35;;;;;;;9.82;7.35;;;;;;;6.76;95.66;102600.16;4965937;28;20089;-92
2023/02/12 08:51:22;;;;;;;13.45;8.43;;;;;;;6.96;94.28;102620.53;4955696;28;20484;-91
2023/02/12 08:53:52;;;;;;;11.70;7.93;;;;;;;6.80;95.01;102628.34;4963731;28;20113;-91
2023/02/12 08:56:18;;;;;;;10.57;7.47;;;;;;;6.84;95.22;102626.59;4961000;28;20057;-91
2023/02/12 08:58:44;;;;;;;9.18;6.75;;;;;;;7.00;93.64;102629.94;4954744;28;20130;-91
2023/02/12 09:01:30;;;;;;;10.68;7.15;;;;;;;6.96;92.91;102623.09;4960497;28;20094;-91
2023/02/12 09:03:55;;;;;;;9.38;6.65;;;;;;;6.85;92.91;102608.63;4967344;28;20039;-91
2023/02/12 09:06:23;;;;;;;9.00;6.65;;;;;;;6.93;91.61;102623.13;4960322;28;20034;-91
2023/02/12 09:08:49;;;;;;;10.55;7.53;;;;;;;7.18;90.64;102629.78;4969177;28;20039;-91
2023/02/12 09:11:23;;;;;;;7.32;6.07;;;;;;;7.23;89.19;102630.59;4959318;28;20156;-92
2023/02/12 09:13:49;;;;;;;8.40;6.05;;;;;;;7.31;87.67;102612.53;4985338;28;20027;-90
2023/02/12 09:16:14;;;;;;;12.40;6.85;;;;;;;7.31;87.30;102629.66;4953826;28;20036;-92
2023/02/12 09:18:40;;;;;;;10.07;6.78;;;;;;;7.13;88.15;102631.53;4954716;28;20025;-90
2023/02/12 09:21:13;;;;;;;10.70;6.47;;;;;;;7.35;86.85;102631.34;4963625;28;20510;-90
2023/02/12 09:23:41;;;;;;;8.25;6.15;;;;;;;7.24;86.52;102622.03;4972808;28;20133;-92
2023/02/12 09:26:09;;;;;;;8.20;6.50;;;;;;;7.49;86.10;102635.50;4973727;28;20038;-92
2023/02/12 09:28:36;;;;;;;15.23;6.25;;;;;;;7.33;84.95;102640.78;4973308;28;20058;-91
2023/02/12 09:31:16;;;;;;;11.73;6.53;;;;;;;7.39;85.96;102641.59;4968940;28;20544;-92
2023/02/12 09:33:42;;;;;;;8.25;6.38;;;;;;;7.46;84.45;102630.41;4959715;28;21241;-91
2023/02/12 09:36:11;;;;;;;7.93;5.80;;;;;;;7.52;82.69;102619.19;4968341;28;20093;-92
2023/02/12 09:38:37;;;;;;;13.10;5.68;;;;;;;7.70;81.99;102613.88;4975416;28;20023;-92
2023/02/12 09:41:11;;;;;;;12.70;5.85;;;;;;;8.04;80.26;102623.78;4973239;28;20081;-90
2023/02/12 09:43:52;;;;;;;7.28;5.32;;;;;;;8.26;79.27;102623.53;4972788;28;20485;-91
2023/02/12 09:46:30;;;;;;;8.57;5.25;;;;;;;8.25;76.91;102616.69;4955615;28;20039;-91
2023/02/12 09:49:02;;;;;;;7.63;4.82;;;;;;;8.04;75.59;102621.19;4954818;28;20482;-91
2023/02/12 09:51:29;;;;;;;9.52;5.15;;;;;;;8.00;74.17;102614.41;5000053;28;20048;-91
2023/02/12 09:54:11;;;;;;;9.10;5.10;;;;;;;8.28;72.92;102624.34;4984651;28;20027;-91
2023/02/12 09:56:39;;;;;;;7.38;5.18;;;;;;;8.35;72.66;102613.13;4992866;28;20077;-91
2023/02/12 09:59:07;;;;;;;9.23;4.90;;;;;;;8.01;72.89;102604.97;4991019;28;20038;-91
2023/02/12 10:01:33;;;;;;;8.10;5.15;;;;;;;8.19;72.60;102611.59;4992716;28;20034;-91
2023/02/12 10:04:00;;;;;;;8.18;5.15;;;;;;;8.55;71.99;102618.84;4961047;28;20485;-91
2023/02/12 10:06:31;;;;;;;5.47;4.22;;;;;;;8.53;70.86;102599.16;4957974;28;20073;-91
2023/02/12 10:09:31;;;;;;;6.85;4.65;;;;;;;8.59;70.09;102611.13;4957223;28;20031;-92
2023/02/12 10:12:11;;;;;;;6.82;4.10;;;;;;;8.53;70.00;102605.19;4954625;28;20035;-91
2023/02/12 10:14:43;;;;;;;6.72;4.70;;;;;;;8.75;69.67;102626.31;4969740;28;20076;-91
2023/02/12 10:17:37;;;;;;;6.53;4.25;;;;;;;8.71;69.94;102611.78;4960028;28;20023;-91
2023/02/12 10:20:45;;;;;;;6.97;5.00;;;;;;;8.43;71.57;102611.31;4955470;28;20035;-91
2023/02/12 10:23:29;;;;;;;8.20;4.95;;;;;;;8.77;70.48;102610.84;4956255;28;20031;-91
2023/02/12 10:25:58;;;;;;;13.30;4.70;;;;;;;8.97;69.05;102618.25;4960054;28;20070;-91
2023/02/12 10:31:25;;;;;;;9.27;5.30;;;;;;;8.74;68.08;102610.88;5142370;22;20054;-96
2023/02/12 10:34:13;;;;;;;7.72;4.53;;;;;;;8.75;67.37;102581.69;4988001;28;20031;-96
2023/02/12 10:36:42;;;;;;;6.70;4.45;;;;;;;8.29;68.07;102598.63;4971686;28;20027;-95
2023/02/12 10:39:18;;;;;;;7.35;3.95;;;;;;;8.57;68.53;102611.97;4973497;28;20042;-96
2023/02/12 10:41:54;;;;;;;7.22;4.90;;;;;;;8.56;68.54;102642.91;4967890;28;20034;-96
2023/02/12 10:44:20;;;;;;;10.85;4.78;;;;;;;8.41;68.80;102633.63;4954410;28;20035;-96
2023/02/12 10:46:46;;;;;;;5.30;3.80;;;;;;;8.57;68.27;102630.00;4962358;28;20089;-96
2023/02/12 10:49:15;;;;;;;9.85;4.68;;;;;;;8.74;68.60;102636.63;4967260;28;20035;-94
2023/02/12 10:52:07;;;;;;;9.10;4.82;;;;;;;8.87;68.26;102637.28;4956814;28;20031;-96
2023/02/12 10:54:36;;;;;;;9.35;4.57;;;;;;;8.80;68.77;102633.94;4987289;28;20038;-95
2023/02/12 10:57:07;;;;;;;5.97;4.70;;;;;;;8.32;70.83;102631.19;4968354;28;20036;-96
2023/02/12 10:59:33;;;;;;;5.30;4.25;;;;;;;8.19;70.35;102603.88;4961559;28;20035;-94
2023/02/12 11:01:59;;;;;;;8.75;5.20;;;;;;;8.48;68.93;102613.81;4969844;28;20038;-95
2023/02/12 11:04:31;;;;;;;7.63;4.80;;;;;;;8.47;69.45;102612.97;4964692;28;20066;-95
2023/02/12 11:07:10;;;;;;;8.52;4.90;;;;;;;8.70;68.19;102622.09;4972379;28;20069;-95
2023/02/12 11:09:44;;;;;;;6.72;4.82;;;;;;;8.61;67.96;102637.66;4973561;28;20033;-96
2023/02/12 11:12:32;;;;;;;12.98;5.88;;;;;;;8.38;68.29;102587.34;4966942;28;20031;-95
2023/02/12 11:15:01;;;;;;;11.77;5.30;;;;;;;8.48;67.80;102601.81;4970893;28;20113;-96
2023/02/12 11:17:39;;;;;;;9.88;6.43;;;;;;;8.67;68.57;102598.97;4960074;28;20042;-95
2023/02/12 11:20:17;;;;;;;8.05;5.78;;;;;;;8.49;68.27;102631.84;4973189;28;20031;-96
2023/02/12 11:22:58;;;;;;;10.95;6.50;;;;;;;8.58;67.61;102612.81;4969443;28;20090;-95
2023/02/12 11:25:29;;;;;;;7.97;6.35;;;;;;;8.53;68.59;102618.06;4963065;28;20037;-96
2023/02/12 11:27:59;;;;;;;9.43;6.45;;;;;;;8.57;67.92;102582.81;4960195;28;20433;-95
2023/02/12 11:30:25;;;;;;;9.25;6.82;;;;;;;8.76;67.69;102594.53;4960826;28;20031;-96
2023/02/12 11:32:51;;;;;;;8.23;7.00;;;;;;;8.82;66.70;102597.91;4973570;28;20038;-96
2023/02/12 11:35:34;;;;;;;7.90;6.90;;;;;;;8.72;66.66;102602.34;4977672;28;20056;-95
2023/02/12 11:38:01;;;;;;;;;;;;;;;8.82;67.28;102606.47;4988823;28;20387;-96
2023/02/12 11:40:29;;;;;;;9.45;7.50;;;;;;;9.05;66.68;102592.41;4975977;28;19913;-94
2023/02/12 11:43:04;;;;;;;9.63;6.55;;;;;;;9.43;65.27;102582.25;4993356;28;20026;-95
2023/02/12 11:45:46;;;;;;;8.60;6.40;;;;;;;9.50;65.17;102597.59;4973520;28;20030;-94